Time;durP1;ratioP1;P1;durP2;ratioP2;P2;SDS_P1;SDS_P2;PMS_P1;PMS_P2;Temp;Humidity;BMP_temperature;BMP_pressure;BME280_temperature;BME280_humidity;BME280_pressure;Samples;Min_cycle;Max_cycle;Signal;HPM_P1;HPM_P2
2023/01/04 00:02:05;;;;;;;;;;;20.40;39.30;;;;;;8331062;28;19924;-45
2023/01/04 00:06:06;;;;;;;;;;;20.40;39.20;;;;;;8331031;28;19917;-46
2023/01/04 00:10:07;;;;;;;;;;;20.30;39.20;;;;;;8331105;28;19971;-45
2023/01/04 00:14:09;;;;;;;;;;;20.40;39.30;;;;;;8330261;28;19925;-45
2023/01/04 00:18:09;;;;;;;;;;;20.40;39.20;;;;;;8330632;28;19936;-44
2023/01/04 00:22:10;;;;;;;;;;;20.30;39.20;;;;;;8330966;28;19928;-45
2023/01/04 00:26:18;;;;;;;;;;;20.30;39.30;;;;;;8330117;28;19959;-45
2023/01/04 00:30:18;;;;;;;;;;;20.30;39.30;;;;;;8330794;28;20425;-45
2023/01/04 00:34:19;;;;;;;;;;;20.30;39.20;;;;;;8330349;28;19928;-45
2023/01/04 00:38:19;;;;;;;;;;;20.30;39.30;;;;;;8329873;28;19992;-46
2023/01/04 00:42:19;;;;;;;;;;;20.20;39.30;;;;;;8330618;28;20278;-44
2023/01/04 00:46:20;;;;;;;;;;;20.20;39.30;;;;;;8330367;28;19960;-44
2023/01/04 00:50:20;;;;;;;;;;;20.20;39.30;;;;;;8330078;28;19917;-45
2023/01/04 00:54:21;;;;;;;;;;;20.20;39.30;;;;;;8329751;28;20008;-44
2023/01/04 00:58:21;;;;;;;;;;;20.20;39.30;;;;;;8330016;28;19917;-44
2023/01/04 01:02:22;;;;;;;;;;;20.20;39.30;;;;;;8329611;28;19967;-45
2023/01/04 01:06:23;;;;;;;;;;;20.20;39.30;;;;;;8329785;28;19970;-44
2023/01/04 01:10:27;;;;;;;;;;;20.20;39.30;;;;;;8329834;28;19953;-44
2023/01/04 01:14:27;;;;;;;;;;;20.20;39.40;;;;;;8329195;28;20349;-45
2023/01/04 01:18:28;;;;;;;;;;;20.20;39.30;;;;;;8329541;28;19979;-46
2023/01/04 01:22:29;;;;;;;;;;;20.10;39.40;;;;;;8329186;28;19927;-46
2023/01/04 01:26:29;;;;;;;;;;;20.10;39.40;;;;;;8329960;28;20286;-45
2023/01/04 01:30:30;;;;;;;;;;;20.10;39.30;;;;;;8336001;28;20373;-45
2023/01/04 01:34:30;;;;;;;;;;;20.10;39.30;;;;;;8334983;28;19929;-45
2023/01/04 01:38:31;;;;;;;;;;;20.10;39.90;;;;;;8335357;28;19917;-45
2023/01/04 01:42:31;;;;;;;;;;;20.10;39.40;;;;;;8335671;28;20285;-45
2023/01/04 01:46:37;;;;;;;;;;;20.00;39.40;;;;;;8334831;28;19918;-44
2023/01/04 01:50:40;;;;;;;;;;;20.10;39.40;;;;;;8334900;28;19971;-45
2023/01/04 01:54:42;;;;;;;;;;;20.10;39.50;;;;;;8335294;28;19953;-45
2023/01/04 01:58:44;;;;;;;;;;;20.00;39.30;;;;;;8334362;28;19917;-45
2023/01/04 02:02:51;;;;;;;;;;;20.00;39.40;;;;;;8335058;28;19920;-45
2023/01/04 02:06:53;;;;;;;;;;;20.00;39.40;;;;;;8334632;28;19917;-45
2023/01/04 02:10:54;;;;;;;;;;;20.00;39.40;;;;;;8326749;28;19921;-45
2023/01/04 02:14:54;;;;;;;;;;;20.00;39.40;;;;;;8316060;28;19940;-45
2023/01/04 02:19:15;;;;;;;;;;;20.00;39.40;;;;;;8333889;28;20297;-44
2023/01/04 02:23:31;;;;;;;;;;;20.00;39.40;;;;;;8322027;28;20301;-45
2023/01/04 02:27:38;;;;;;;;;;;20.00;39.40;;;;;;8334203;28;19970;-45
2023/01/04 02:31:47;;;;;;;;;;;20.00;39.50;;;;;;8333580;28;20016;-44
2023/01/04 02:36:01;;;;;;;;;;;19.90;39.40;;;;;;8333811;28;19931;-44
2023/01/04 02:40:01;;;;;;;;;;;19.90;39.40;;;;;;8333405;28;19917;-46
2023/01/04 02:52:40;;;;;;;;;;;19.90;39.50;;;;;;8335255;28;19932;-45
2023/01/04 02:56:53;;;;;;;;;;;19.90;39.70;;;;;;8332913;28;19948;-45
2023/01/04 03:09:46;;;;;;;;;;;19.90;39.50;;;;;;8337550;28;19923;-46
2023/01/04 03:13:47;;;;;;;;;;;19.90;39.50;;;;;;8331743;28;20295;-45
2023/01/04 03:17:56;;;;;;;;;;;19.80;39.50;;;;;;8332649;28;19913;-45
2023/01/04 03:21:57;;;;;;;;;;;19.80;39.50;;;;;;8332545;28;19917;-45
2023/01/04 03:52:04;;;;;;;;;;;19.70;39.50;;;;;;8331297;28;19932;-45
2023/01/04 03:56:06;;;;;;;;;;;19.70;39.50;;;;;;8330831;28;19917;-45
2023/01/04 04:00:12;;;;;;;;;;;19.80;39.60;;;;;;8331408;28;19917;-45
2023/01/04 04:08:32;;;;;;;;;;;19.80;39.60;;;;;;8330943;28;20400;-45
2023/01/04 04:12:32;;;;;;;;;;;19.70;39.60;;;;;;8330994;28;19964;-47
2023/01/04 04:16:32;;;;;;;;;;;19.70;39.70;;;;;;8330104;28;19924;-46
2023/01/04 04:20:33;;;;;;;;;;;19.70;39.70;;;;;;8330568;28;20378;-45
2023/01/04 04:24:34;;;;;;;;;;;19.70;39.70;;;;;;8330742;28;19917;-46
2023/01/04 04:28:34;;;;;;;;;;;19.80;39.70;;;;;;8330137;28;20270;-46
2023/01/04 04:32:35;;;;;;;;;;;19.80;39.60;;;;;;8330268;28;19925;-45
2023/01/04 04:36:35;;;;;;;;;;;19.90;39.60;;;;;;8330373;28;19924;-46
2023/01/04 04:44:56;;;;;;;;;;;19.90;39.40;;;;;;8333301;28;19923;-45
2023/01/04 04:48:56;;;;;;;;;;;20.00;39.50;;;;;;8330144;28;20271;-46
2023/01/04 04:52:57;;;;;;;;;;;20.00;39.40;;;;;;8329622;28;20036;-45
2023/01/04 04:56:57;;;;;;;;;;;20.00;39.50;;;;;;8330057;28;19921;-46
2023/01/04 05:00:58;;;;;;;;;;;20.10;39.40;;;;;;8330018;28;19917;-45
2023/01/04 05:04:58;;;;;;;;;;;20.10;39.40;;;;;;8334156;28;19917;-46
2023/01/04 05:08:58;;;;;;;;;;;20.10;39.30;;;;;;8336738;28;19913;-46
2023/01/04 05:12:59;;;;;;;;;;;20.20;39.30;;;;;;8336145;28;20402;-45
2023/01/04 05:16:59;;;;;;;;;;;20.20;39.30;;;;;;8335506;28;19940;-46
2023/01/04 05:21:01;;;;;;;;;;;20.20;39.20;;;;;;8336067;28;19917;-46
2023/01/04 05:25:01;;;;;;;;;;;20.30;39.30;;;;;;8336149;28;19952;-46
2023/01/04 05:29:02;;;;;;;;;;;20.30;39.30;;;;;;8335493;28;19917;-45
2023/01/04 05:33:03;;;;;;;;;;;20.30;39.20;;;;;;8335452;28;19995;-45
2023/01/04 05:37:04;;;;;;;;;;;20.30;39.20;;;;;;8335610;28;19913;-44
2023/01/04 05:42:23;;;;;;;;;;;20.40;39.20;;;;;;8334807;28;20298;-45
2023/01/04 05:45:24;;;;;;;;;;;20.40;39.10;;;;;;8335449;28;20289;-45
2023/01/04 05:49:25;;;;;;;;;;;20.40;39.20;;;;;;8335199;28;19976;-45
2023/01/04 05:53:25;;;;;;;;;;;20.40;39.10;;;;;;8334467;28;19925;-45
2023/01/04 05:57:26;;;;;;;;;;;20.40;39.10;;;;;;8335091;28;20012;-46
2023/01/04 06:01:26;;;;;;;;;;;20.50;39.10;;;;;;8334694;28;19913;-45
2023/01/04 06:05:27;;;;;;;;;;;20.50;39.00;;;;;;8334525;28;19917;-45
2023/01/04 06:09:27;;;;;;;;;;;20.50;39.10;;;;;;8334837;28;19992;-45
2023/01/04 06:13:27;;;;;;;;;;;20.50;39.10;;;;;;8333448;28;19925;-43
2023/01/04 06:17:28;;;;;;;;;;;20.50;39.10;;;;;;8334171;28;19940;-45
2023/01/04 06:21:28;;;;;;;;;;;20.50;39.10;;;;;;8334156;28;19996;-45
2023/01/04 06:25:29;;;;;;;;;;;20.50;39.20;;;;;;8333554;28;20393;-44
2023/01/04 06:29:29;;;;;;;;;;;20.50;39.10;;;;;;8334308;28;19948;-46
2023/01/04 06:33:30;;;;;;;;;;;20.50;39.20;;;;;;8333802;28;19925;-46
2023/01/04 06:37:30;;;;;;;;;;;20.40;39.20;;;;;;8333330;28;19921;-47
2023/01/04 06:41:30;;;;;;;;;;;20.40;39.20;;;;;;8333569;28;19921;-45
2023/01/04 06:45:31;;;;;;;;;;;20.40;39.10;;;;;;8333467;28;19921;-45
2023/01/04 06:49:31;;;;;;;;;;;20.50;39.10;;;;;;8333213;28;19921;-46
2023/01/04 06:53:32;;;;;;;;;;;20.40;39.10;;;;;;8332938;28;19925;-46
2023/01/04 06:57:32;;;;;;;;;;;20.40;39.00;;;;;;8333181;28;19923;-45
2023/01/04 07:01:33;;;;;;;;;;;20.40;39.50;;;;;;8332656;28;19914;-49
2023/01/04 07:05:33;;;;;;;;;;;20.40;39.00;;;;;;8333232;28;19920;-45
2023/01/04 07:09:34;;;;;;;;;;;20.40;39.00;;;;;;8332793;28;19963;-45
2023/01/04 07:13:35;;;;;;;;;;;20.40;39.00;;;;;;8332115;28;19925;-45
2023/01/04 07:17:35;;;;;;;;;;;20.40;39.00;;;;;;8332589;28;19963;-44
2023/01/04 07:21:36;;;;;;;;;;;20.40;39.00;;;;;;8332272;28;19967;-47
2023/01/04 07:25:36;;;;;;;;;;;20.40;38.90;;;;;;8330781;28;19971;-45
2023/01/04 07:29:37;;;;;;;;;;;20.40;38.90;;;;;;8332924;28;19913;-47
2023/01/04 07:33:37;;;;;;;;;;;20.40;39.00;;;;;;8332040;28;19933;-45
2023/01/04 07:37:38;;;;;;;;;;;20.40;38.90;;;;;;8331301;28;20270;-46
2023/01/04 07:41:39;;;;;;;;;;;20.40;38.90;;;;;;8331652;28;20000;-45
2023/01/04 07:45:42;;;;;;;;;;;20.40;38.90;;;;;;8331733;28;19921;-45
2023/01/04 07:49:42;;;;;;;;;;;20.40;38.90;;;;;;8331391;28;20008;-46
2023/01/04 07:53:43;;;;;;;;;;;20.30;38.90;;;;;;8331335;28;20310;-46
2023/01/04 07:57:43;;;;;;;;;;;20.40;38.90;;;;;;8331520;28;19921;-46
2023/01/04 08:01:44;;;;;;;;;;;20.30;38.90;;;;;;8330756;28;20377;-45
2023/01/04 08:05:44;;;;;;;;;;;20.40;39.00;;;;;;8331070;28;19967;-48
2023/01/04 08:09:45;;;;;;;;;;;20.30;38.90;;;;;;8300970;28;19917;-45
2023/01/04 08:13:45;;;;;;;;;;;20.30;38.90;;;;;;8324095;28;19944;-45
2023/01/04 08:17:45;;;;;;;;;;;20.40;38.90;;;;;;8330964;28;20007;-45
2023/01/04 08:21:47;;;;;;;;;;;20.40;38.90;;;;;;8330622;28;19917;-45
2023/01/04 08:25:47;;;;;;;;;;;20.30;38.80;;;;;;8330250;28;19917;-44
2023/01/04 08:29:48;;;;;;;;;;;20.40;38.90;;;;;;8330702;28;19968;-45
2023/01/04 08:33:48;;;;;;;;;;;20.40;38.80;;;;;;8330360;28;20362;-45
2023/01/04 08:37:49;;;;;;;;;;;20.30;38.80;;;;;;8329829;28;19949;-45
2023/01/04 08:41:49;;;;;;;;;;;20.30;38.80;;;;;;8330516;28;20008;-46
2023/01/04 08:45:50;;;;;;;;;;;20.40;38.90;;;;;;8330448;28;19921;-45
2023/01/04 08:49:50;;;;;;;;;;;20.40;39.00;;;;;;8330037;28;19921;-46
2023/01/04 08:53:51;;;;;;;;;;;20.30;38.80;;;;;;8330351;28;19929;-45
2023/01/04 08:57:52;;;;;;;;;;;20.30;38.80;;;;;;8330136;28;19914;-45
2023/01/04 09:01:52;;;;;;;;;;;20.40;38.90;;;;;;8329505;28;19917;-44
2023/01/04 09:05:53;;;;;;;;;;;20.40;38.90;;;;;;8330456;28;19919;-45
2023/01/04 09:09:53;;;;;;;;;;;20.40;38.90;;;;;;8329892;28;20378;-45
2023/01/04 09:13:55;;;;;;;;;;;20.40;38.90;;;;;;8329358;28;20401;-46
2023/01/04 09:17:56;;;;;;;;;;;20.40;38.80;;;;;;8329736;28;19968;-45
2023/01/04 09:21:56;;;;;;;;;;;20.40;39.40;;;;;;8329750;28;19913;-45
2023/01/04 09:25:56;;;;;;;;;;;20.40;38.90;;;;;;8329441;28;19996;-46
2023/01/04 09:29:57;;;;;;;;;;;20.40;38.90;;;;;;8329492;28;20087;-45
2023/01/04 09:33:58;;;;;;;;;;;20.40;38.90;;;;;;8329369;28;19975;-45
2023/01/04 09:37:58;;;;;;;;;;;20.40;38.90;;;;;;8329289;28;19959;-45
2023/01/04 09:42:02;;;;;;;;;;;20.40;38.90;;;;;;8329491;28;19913;-48
2023/01/04 09:46:04;;;;;;;;;;;20.40;38.80;;;;;;8329436;28;19963;-45
2023/01/04 09:50:25;;;;;;;;;;;20.40;38.80;;;;;;8332776;28;19925;-45
2023/01/04 09:54:41;;;;;;;;;;;20.40;38.90;;;;;;8334687;28;19933;-46
2023/01/04 09:58:42;;;;;;;;;;;20.40;38.80;;;;;;8334703;28;19918;-46
2023/01/04 10:02:45;;;;;;;;;;;20.40;38.90;;;;;;8334913;28;20347;-45
2023/01/04 10:06:46;;;;;;;;;;;20.40;38.90;;;;;;8334753;28;19920;-43
2023/01/04 10:11:10;;;;;;;;;;;20.40;38.90;;;;;;8334458;28;19925;-45
2023/01/04 10:15:19;;;;;;;;;;;20.40;38.90;;;;;;8334758;28;19987;-46
2023/01/04 10:19:28;;;;;;;;;;;20.40;39.00;;;;;;8334343;28;19917;-47
2023/01/04 10:23:37;;;;;;;;;;;20.40;38.90;;;;;;8334200;28;19917;-46
2023/01/04 10:27:41;;;;;;;;;;;20.40;38.90;;;;;;8334002;28;20378;-45
2023/01/04 10:31:57;;;;;;;;;;;20.40;38.90;;;;;;8333412;28;20403;-48
2023/01/04 10:35:57;;;;;;;;;;;20.40;38.90;;;;;;8334280;28;19924;-47
2023/01/04 10:39:58;;;;;;;;;;;20.40;38.90;;;;;;8333698;28;19927;-46
2023/01/04 10:44:10;;;;;;;;;;;20.40;38.90;;;;;;8333192;28;20034;-47
2023/01/04 10:48:17;;;;;;;;;;;20.50;38.90;;;;;;8333315;28;19913;-48
2023/01/04 10:52:30;;;;;;;;;;;20.40;38.90;;;;;;8333468;28;19925;-48
2023/01/04 10:56:33;;;;;;;;;;;20.40;38.90;;;;;;8333120;28;19914;-47
2023/01/04 11:00:38;;;;;;;;;;;20.40;38.90;;;;;;8331989;28;20048;-47
2023/01/04 11:04:43;;;;;;;;;;;20.40;39.00;;;;;;8331868;28;19952;-48
2023/01/04 11:08:46;;;;;;;;;;;20.40;38.90;;;;;;8332704;28;19917;-45
2023/01/04 11:12:47;;;;;;;;;;;20.40;38.90;;;;;;8332562;28;19987;-46
2023/01/04 11:16:49;;;;;;;;;;;20.50;39.00;;;;;;8332131;28;19914;-46
2023/01/04 11:20:49;;;;;;;;;;;20.50;38.90;;;;;;8332938;28;20072;-46
2023/01/04 11:24:52;;;;;;;;;;;20.50;39.00;;;;;;8332526;28;19963;-48
2023/01/04 11:28:55;;;;;;;;;;;20.50;39.00;;;;;;8331783;28;19917;-45
2023/01/04 11:33:09;;;;;;;;;;;20.50;39.00;;;;;;8332136;28;19928;-46
2023/01/04 11:37:23;;;;;;;;;;;20.50;39.00;;;;;;8335409;28;20008;-49
2023/01/04 11:41:24;;;;;;;;;;;20.50;39.00;;;;;;8331630;28;20353;-46
2023/01/04 11:45:26;;;;;;;;;;;20.40;39.00;;;;;;8332174;28;20378;-45
2023/01/04 11:49:32;;;;;;;;;;;20.50;39.00;;;;;;8331705;28;19940;-46
2023/01/04 11:53:34;;;;;;;;;;;20.50;39.00;;;;;;8331388;28;20004;-45
2023/01/04 11:57:34;;;;;;;;;;;20.50;39.00;;;;;;8331418;28;19913;-46
2023/01/04 12:01:36;;;;;;;;;;;20.50;39.50;;;;;;8330920;28;19948;-48
2023/01/04 12:05:37;;;;;;;;;;;20.50;39.00;;;;;;8330918;28;20386;-45
2023/01/04 12:09:37;;;;;;;;;;;20.50;39.00;;;;;;8330965;28;19924;-46
2023/01/04 12:13:38;;;;;;;;;;;20.50;39.00;;;;;;8329869;28;19928;-47
2023/01/04 12:17:45;;;;;;;;;;;20.50;39.00;;;;;;8330673;28;19948;-49
2023/01/04 12:21:50;;;;;;;;;;;20.50;39.00;;;;;;8331253;28;20334;-45
2023/01/04 12:25:51;;;;;;;;;;;20.50;39.00;;;;;;8330545;28;20317;-45
2023/01/04 12:29:54;;;;;;;;;;;20.50;39.00;;;;;;8330651;28;19971;-46
2023/01/04 12:33:56;;;;;;;;;;;20.50;39.00;;;;;;8330198;28;20294;-45
2023/01/04 12:37:56;;;;;;;;;;;20.50;39.00;;;;;;8329492;28;19917;-45
2023/01/04 12:41:59;;;;;;;;;;;20.50;39.50;;;;;;8329668;28;19917;-46
2023/01/04 12:49:02;;;;;;;;;;;20.50;38.90;;;;;;8330069;28;20266;-45
2023/01/04 12:51:15;;;;;;;;;;;20.50;38.90;;;;;;8329424;28;19963;-46
2023/01/04 12:55:40;;;;;;;;;;;20.50;38.90;;;;;;8329774;28;19970;-46
2023/01/04 12:59:55;;;;;;;;;;;20.50;38.90;;;;;;8326130;28;19917;-46
2023/01/04 13:03:58;;;;;;;;;;;20.50;38.90;;;;;;8329541;28;20377;-45
2023/01/04 13:07:59;;;;;;;;;;;20.50;39.00;;;;;;8329173;28;20357;-46
2023/01/04 13:12:06;;;;;;;;;;;20.40;38.90;;;;;;8329771;28;19921;-47
2023/01/04 13:16:16;;;;;;;;;;;20.40;39.00;;;;;;8329712;28;19917;-46
2023/01/04 13:20:19;;;;;;;;;;;20.40;38.90;;;;;;8328661;28;20382;-47
2023/01/04 13:24:25;;;;;;;;;;;20.40;39.00;;;;;;8332570;28;19921;-45
2023/01/04 13:28:26;;;;;;;;;;;20.40;39.00;;;;;;8336286;28;19987;-45
2023/01/04 13:32:27;;;;;;;;;;;20.30;39.00;;;;;;8335669;28;19921;-47
2023/01/04 13:36:28;;;;;;;;;;;20.30;39.00;;;;;;8335640;28;19917;-45
2023/01/04 13:40:31;;;;;;;;;;;20.30;39.00;;;;;;8335012;28;19944;-45
2023/01/04 13:44:43;;;;;;;;;;;20.30;39.00;;;;;;8335809;28;20354;-46
2023/01/04 13:48:46;;;;;;;;;;;20.20;39.00;;;;;;8335388;28;20346;-46
2023/01/04 13:52:47;;;;;;;;;;;20.20;39.10;;;;;;8335150;28;19932;-45
2023/01/04 13:56:48;;;;;;;;;;;20.20;39.10;;;;;;8334898;28;19924;-45
2023/01/04 14:00:51;;;;;;;;;;;20.20;39.10;;;;;;8334721;28;19924;-45
2023/01/04 14:04:51;;;;;;;;;;;20.20;39.20;;;;;;8334549;28;20293;-45
2023/01/04 14:09:12;;;;;;;;;;;20.10;39.20;;;;;;8333879;28;19924;-48
2023/01/04 14:13:15;;;;;;;;;;;20.10;39.20;;;;;;8334588;28;20378;-46
2023/01/04 14:17:20;;;;;;;;;;;20.10;39.30;;;;;;8334104;28;20432;-48
2023/01/04 14:21:32;;;;;;;;;;;20.10;39.30;;;;;;8334501;28;19924;-45
2023/01/04 14:25:32;;;;;;;;;;;20.00;39.30;;;;;;8333868;28;19999;-45
2023/01/04 14:29:33;;;;;;;;;;;20.00;39.20;;;;;;8334139;28;20416;-45
2023/01/04 14:33:39;;;;;;;;;;;20.00;39.30;;;;;;8333554;28;19921;-46
2023/01/04 14:37:40;;;;;;;;;;;20.00;39.30;;;;;;8333595;28;19917;-47
2023/01/04 14:41:42;;;;;;;;;;;20.00;39.30;;;;;;8333640;28;19917;-46
2023/01/04 14:45:42;;;;;;;;;;;19.90;39.30;;;;;;8333712;28;19921;-49
2023/01/04 14:49:43;;;;;;;;;;;19.90;39.30;;;;;;8333038;28;19914;-46
2023/01/04 14:53:43;;;;;;;;;;;19.90;39.30;;;;;;8333352;28;19925;-46
2023/01/04 14:57:44;;;;;;;;;;;19.90;39.30;;;;;;8332117;28;19917;-44
2023/01/04 15:01:45;;;;;;;;;;;19.90;39.30;;;;;;8332635;28;19921;-44
2023/01/04 15:05:45;;;;;;;;;;;19.90;39.40;;;;;;8333307;28;19917;-45
2023/01/04 15:09:46;;;;;;;;;;;19.90;39.40;;;;;;8332939;28;20003;-45
2023/01/04 15:13:46;;;;;;;;;;;19.90;39.30;;;;;;8331999;28;19986;-45
2023/01/04 15:17:47;;;;;;;;;;;19.80;39.30;;;;;;8332652;28;20297;-46
2023/01/04 15:21:47;;;;;;;;;;;19.80;39.40;;;;;;8332462;28;19917;-45
2023/01/04 15:25:48;;;;;;;;;;;19.80;39.40;;;;;;8331789;28;19921;-45
2023/01/04 15:29:48;;;;;;;;;;;19.80;39.40;;;;;;8332367;28;20286;-45
2023/01/04 15:33:48;;;;;;;;;;;19.80;39.30;;;;;;8331932;28;19940;-46
2023/01/04 15:37:49;;;;;;;;;;;19.80;39.40;;;;;;8331538;28;20321;-45
2023/01/04 15:46:09;;;;;;;;;;;19.70;39.40;;;;;;8331102;28;19964;-46
2023/01/04 15:50:09;;;;;;;;;;;19.70;39.50;;;;;;8331194;28;19917;-45
2023/01/04 15:54:09;;;;;;;;;;;19.80;39.50;;;;;;8331396;28;19925;-45
2023/01/04 15:58:10;;;;;;;;;;;19.70;39.50;;;;;;8331371;28;19983;-46
2023/01/04 16:02:10;;;;;;;;;;;19.70;39.60;;;;;;8330410;28;19980;-45
2023/01/04 16:06:12;;;;;;;;;;;19.70;39.60;;;;;;8331085;28;19944;-45
2023/01/04 16:10:13;;;;;;;;;;;19.70;39.60;;;;;;8330743;28;19917;-44
2023/01/04 16:14:14;;;;;;;;;;;19.70;39.60;;;;;;8330181;28;19932;-48
2023/01/04 16:18:14;;;;;;;;;;;19.70;39.50;;;;;;8331033;28;20275;-45
2023/01/04 16:22:15;;;;;;;;;;;19.60;39.50;;;;;;8330586;28;19917;-47
2023/01/04 16:26:15;;;;;;;;;;;19.60;39.50;;;;;;8330153;28;19917;-46
2023/01/04 16:30:15;;;;;;;;;;;19.60;39.60;;;;;;8330661;28;19917;-47
2023/01/04 16:34:16;;;;;;;;;;;19.60;39.60;;;;;;8330318;28;19957;-47
2023/01/04 16:38:16;;;;;;;;;;;19.60;39.60;;;;;;8330090;28;19913;-46
2023/01/04 16:42:17;;;;;;;;;;;19.50;39.60;;;;;;8330538;28;19924;-46
2023/01/04 16:46:19;;;;;;;;;;;19.50;39.60;;;;;;8330360;28;19999;-47
2023/01/04 16:50:20;;;;;;;;;;;19.50;39.70;;;;;;8329695;28;20000;-44
2023/01/04 16:54:20;;;;;;;;;;;19.50;39.70;;;;;;8330477;28;19933;-45
2023/01/04 16:58:20;;;;;;;;;;;19.50;39.60;;;;;;8333459;28;20378;-45
2023/01/04 17:02:21;;;;;;;;;;;19.50;39.70;;;;;;8336234;28;20110;-44
2023/01/04 17:06:23;;;;;;;;;;;19.50;39.70;;;;;;8336692;28;20370;-46
2023/01/04 17:10:23;;;;;;;;;;;19.50;39.70;;;;;;8335160;28;19917;-46
2023/01/04 17:14:24;;;;;;;;;;;19.50;39.70;;;;;;8335763;28;20408;-48
2023/01/04 17:18:25;;;;;;;;;;;19.50;39.80;;;;;;8336685;28;19914;-48
2023/01/04 17:22:25;;;;;;;;;;;19.50;39.70;;;;;;8336259;28;20303;-48
2023/01/04 17:26:27;;;;;;;;;;;19.50;39.70;;;;;;8335515;28;20013;-46
2023/01/04 17:30:28;;;;;;;;;;;19.50;39.80;;;;;;8336167;28;19917;-45
2023/01/04 17:34:28;;;;;;;;;;;19.40;39.80;;;;;;8335286;28;19922;-45
2023/01/04 17:38:28;;;;;;;;;;;19.40;39.80;;;;;;8335848;28;19917;-45
2023/01/04 17:42:31;;;;;;;;;;;19.50;39.80;;;;;;8335695;28;19918;-45
2023/01/04 17:46:33;;;;;;;;;;;19.40;39.80;;;;;;8335051;28;19970;-45
2023/01/04 17:50:34;;;;;;;;;;;19.40;39.70;;;;;;8335671;28;19917;-48
2023/01/04 17:54:34;;;;;;;;;;;19.40;39.80;;;;;;8334957;28;19925;-46
2023/01/04 17:58:35;;;;;;;;;;;19.40;39.80;;;;;;8334704;28;20374;-46
2023/01/04 18:02:36;;;;;;;;;;;19.40;39.80;;;;;;8335232;28;19918;-46
2023/01/04 18:06:37;;;;;;;;;;;19.40;39.80;;;;;;8334739;28;20016;-46
2023/01/04 18:10:38;;;;;;;;;;;19.40;39.90;;;;;;8333536;28;20430;-47
2023/01/04 18:14:38;;;;;;;;;;;19.30;39.90;;;;;;8334329;28;19925;-46
2023/01/04 18:18:38;;;;;;;;;;;19.30;39.90;;;;;;8334718;28;20015;-44
2023/01/04 18:22:39;;;;;;;;;;;19.40;39.90;;;;;;8333758;28;19913;-44
2023/01/04 18:26:39;;;;;;;;;;;19.40;39.90;;;;;;8334225;28;20401;-45
2023/01/04 18:30:40;;;;;;;;;;;19.30;39.90;;;;;;8333939;28;19920;-45
2023/01/04 18:34:40;;;;;;;;;;;19.30;39.80;;;;;;8333702;28;19925;-44
2023/01/04 18:38:42;;;;;;;;;;;19.40;39.80;;;;;;8333692;28;19922;-45
2023/01/04 18:42:46;;;;;;;;;;;19.30;39.80;;;;;;8333676;28;19928;-45
2023/01/04 18:46:46;;;;;;;;;;;19.40;39.90;;;;;;8333205;28;20362;-45
2023/01/04 18:50:48;;;;;;;;;;;19.30;39.90;;;;;;8333726;28;19914;-47
2023/01/04 18:54:48;;;;;;;;;;;19.30;39.90;;;;;;8333844;28;19928;-44
2023/01/04 18:58:49;;;;;;;;;;;19.30;39.90;;;;;;8332592;28;20363;-44
2023/01/04 19:02:50;;;;;;;;;;;19.30;39.90;;;;;;8333259;28;20287;-45
2023/01/04 19:06:50;;;;;;;;;;;19.30;39.90;;;;;;8333167;28;19921;-45
2023/01/04 19:10:51;;;;;;;;;;;19.30;39.90;;;;;;8332442;28;19921;-44
2023/01/04 19:14:51;;;;;;;;;;;19.30;39.90;;;;;;8332934;28;20301;-45
2023/01/04 19:18:51;;;;;;;;;;;19.30;40.40;;;;;;8332586;28;20458;-46
2023/01/04 19:22:52;;;;;;;;;;;19.30;39.90;;;;;;8330886;28;20408;-44
2023/01/04 19:26:53;;;;;;;;;;;19.30;39.90;;;;;;8332247;28;19917;-45
2023/01/04 19:30:54;;;;;;;;;;;19.30;40.00;;;;;;8332299;28;19917;-46
2023/01/04 19:34:54;;;;;;;;;;;19.20;39.90;;;;;;8331801;28;19921;-44
2023/01/04 19:38:55;;;;;;;;;;;19.30;40.00;;;;;;8332066;28;19921;-48
2023/01/04 19:42:57;;;;;;;;;;;19.20;39.90;;;;;;8331781;28;19918;-48
2023/01/04 19:46:57;;;;;;;;;;;19.20;40.00;;;;;;8331158;28;19917;-48
2023/01/04 19:51:02;;;;;;;;;;;19.20;40.00;;;;;;8331778;28;19929;-46
2023/01/04 19:55:04;;;;;;;;;;;19.20;40.00;;;;;;8331650;28;19956;-46
2023/01/04 19:59:05;;;;;;;;;;;19.20;40.00;;;;;;8330519;28;20107;-46
2023/01/04 20:03:06;;;;;;;;;;;19.20;40.00;;;;;;8331218;28;20289;-46
2023/01/04 20:07:06;;;;;;;;;;;19.20;40.00;;;;;;8322420;28;19924;-46
2023/01/04 20:11:07;;;;;;;;;;;19.20;40.00;;;;;;8330536;28;19956;-46
2023/01/04 20:15:09;;;;;;;;;;;19.20;40.00;;;;;;8331334;28;20386;-46
2023/01/04 20:19:09;;;;;;;;;;;19.20;40.10;;;;;;8330625;28;20016;-47
2023/01/04 20:23:10;;;;;;;;;;;19.20;40.10;;;;;;8330070;28;20309;-47
2023/01/04 20:27:10;;;;;;;;;;;19.20;40.10;;;;;;8330522;28;20004;-46
2023/01/04 20:31:12;;;;;;;;;;;19.10;40.10;;;;;;8330441;28;19917;-46
2023/01/04 20:35:13;;;;;;;;;;;19.20;40.10;;;;;;8330005;28;19925;-46
2023/01/04 20:39:13;;;;;;;;;;;19.10;40.10;;;;;;8330396;28;19924;-47
2023/01/04 20:43:32;;;;;;;;;;;19.20;40.20;;;;;;8330289;28;20016;-46
2023/01/04 20:47:32;;;;;;;;;;;19.10;40.10;;;;;;8330019;28;19922;-46
2023/01/04 20:51:33;;;;;;;;;;;19.20;40.10;;;;;;8330082;28;20016;-47
2023/01/04 20:55:38;;;;;;;;;;;19.20;40.10;;;;;;8329331;28;21285;-47
2023/01/04 20:59:40;;;;;;;;;;;19.20;40.20;;;;;;8330108;28;19917;-47
2023/01/04 21:03:41;;;;;;;;;;;19.10;40.10;;;;;;8329943;28;20007;-46
2023/01/04 21:07:41;;;;;;;;;;;19.10;40.20;;;;;;8329213;28;19914;-46
2023/01/04 21:11:42;;;;;;;;;;;19.10;40.20;;;;;;8329731;28;19925;-46
2023/01/04 21:15:42;;;;;;;;;;;19.10;40.20;;;;;;8329931;28;20305;-47
2023/01/04 21:19:43;;;;;;;;;;;19.10;40.20;;;;;;8329362;28;20290;-46
2023/01/04 21:23:44;;;;;;;;;;;19.10;40.30;;;;;;8329750;28;19917;-45
2023/01/04 21:27:44;;;;;;;;;;;19.10;40.30;;;;;;8329440;28;19948;-47
2023/01/04 21:31:45;;;;;;;;;;;19.10;40.30;;;;;;8328923;28;19928;-46
2023/01/04 21:35:45;;;;;;;;;;;19.10;40.30;;;;;;8329493;28;20004;-46
2023/01/04 21:39:46;;;;;;;;;;;19.10;40.30;;;;;;8329505;28;20306;-46
2023/01/04 21:43:46;;;;;;;;;;;19.00;40.30;;;;;;8329371;28;20356;-46
2023/01/04 21:47:47;;;;;;;;;;;19.10;40.40;;;;;;8335561;28;20360;-46
2023/01/04 21:51:47;;;;;;;;;;;19.10;40.40;;;;;;8335479;28;19925;-45
2023/01/04 21:55:55;;;;;;;;;;;19.00;40.40;;;;;;8334913;28;19913;-46
2023/01/04 21:59:56;;;;;;;;;;;19.00;40.40;;;;;;8335037;28;19925;-46
2023/01/04 22:03:56;;;;;;;;;;;19.00;40.40;;;;;;8334952;28;20276;-46
2023/01/04 22:07:57;;;;;;;;;;;19.00;40.40;;;;;;8334334;28;19917;-46
2023/01/04 22:11:57;;;;;;;;;;;19.00;40.50;;;;;;8334656;28;19956;-46
2023/01/04 22:15:58;;;;;;;;;;;19.00;40.50;;;;;;8334822;28;19913;-46
2023/01/04 22:19:58;;;;;;;;;;;19.00;40.50;;;;;;8334005;28;19936;-45
2023/01/04 22:23:59;;;;;;;;;;;19.00;40.50;;;;;;8334309;28;19925;-46
2023/01/04 22:27:59;;;;;;;;;;;19.00;40.50;;;;;;8334292;28;20370;-46
2023/01/04 22:31:59;;;;;;;;;;;19.00;40.50;;;;;;8333464;28;19987;-46
2023/01/04 22:36:07;;;;;;;;;;;19.00;40.50;;;;;;8334072;28;20397;-46
2023/01/04 22:40:07;;;;;;;;;;;19.00;40.40;;;;;;8334018;28;19924;-45
2023/01/04 22:44:08;;;;;;;;;;;19.00;40.50;;;;;;8333183;28;19962;-46
2023/01/04 22:48:09;;;;;;;;;;;19.00;40.50;;;;;;8333564;28;19917;-46
2023/01/04 22:52:09;;;;;;;;;;;19.00;40.40;;;;;;8333535;28;20286;-45
2023/01/04 22:56:11;;;;;;;;;;;19.00;40.40;;;;;;8332981;28;20386;-46
2023/01/04 23:00:12;;;;;;;;;;;19.10;40.40;;;;;;8332243;28;19917;-45
2023/01/04 23:04:14;;;;;;;;;;;19.10;40.40;;;;;;8326685;28;20440;-45
2023/01/04 23:08:15;;;;;;;;;;;19.10;40.40;;;;;;8332568;28;19923;-47
2023/01/04 23:12:15;;;;;;;;;;;19.10;40.40;;;;;;8332976;28;19922;-46
2023/01/04 23:16:16;;;;;;;;;;;19.10;40.40;;;;;;8332901;28;19917;-47
2023/01/04 23:20:17;;;;;;;;;;;19.10;40.40;;;;;;8332262;28;19957;-45
2023/01/04 23:24:17;;;;;;;;;;;19.10;40.40;;;;;;8332648;28;19971;-45
2023/01/04 23:28:18;;;;;;;;;;;19.00;40.40;;;;;;8332279;28;19948;-45
2023/01/04 23:32:18;;;;;;;;;;;19.10;40.40;;;;;;8331601;28;19925;-46
2023/01/04 23:36:20;;;;;;;;;;;19.10;40.40;;;;;;8332346;28;20314;-45
2023/01/04 23:40:21;;;;;;;;;;;19.10;40.40;;;;;;8332048;28;19955;-46
2023/01/04 23:44:23;;;;;;;;;;;19.00;40.40;;;;;;8331411;28;19917;-45
2023/01/04 23:48:23;;;;;;;;;;;19.00;40.40;;;;;;8331823;28;19921;-45
2023/01/04 23:52:23;;;;;;;;;;;19.10;40.50;;;;;;8331891;28;20330;-46
2023/01/04 23:56:24;;;;;;;;;;;19.10;40.50;;;;;;8331222;28;19921;-46
